Time;durP1;ratioP1;P1;durP2;ratioP2;P2;SDS_P1;SDS_P2;PMS_P1;PMS_P2;Temp;Humidity;BMP_temperature;BMP_pressure;BME280_temperature;BME280_humidity;BME280_pressure;Samples;Min_cycle;Max_cycle;Signal;HPM_P1;HPM_P2
2023/04/18 00:00:42;;;;;;;;;;;;;;;;;;5036601;28;20000;-21
2023/04/18 00:03:08;;;;;;;;;;;;;;;;;;5036036;28;19921;-22
2023/04/18 00:05:35;;;;;;;;;;;;;;;;;;5036470;28;19909;-22
2023/04/18 00:08:01;;;;;;;;;;;;;;;;;;5036429;28;19936;-21
2023/04/18 00:10:27;;;;;;;;;;;;;;;;;;5036059;28;19913;-22
2023/04/18 00:12:53;;;;;;;;;;;;;;;;;;5034945;28;19916;-22
2023/04/18 00:15:19;;;;;;;;;;;;;;;;;;5036266;28;20015;-21
2023/04/18 00:17:46;;;;;;;;;;;;;;;;;;5035961;28;20038;-21
2023/04/18 00:20:12;;;;;;;;;;;;;;;;;;5036149;28;19909;-21
2023/04/18 00:22:41;;;;;;;;;;;;;;;;;;5035823;28;19909;-22
2023/04/18 00:25:07;;;;;;;;;;;;;;;;;;5035845;28;19909;-22
2023/04/18 00:27:33;;;;;;;;;;;;;;;;;;5035733;28;19909;-22
2023/04/18 00:29:59;;;;;;;;;;;;;;;;;;5035841;28;19972;-22
2023/04/18 00:32:24;;;;;;;;;;;;;;;;;;5035584;28;19909;-22
2023/04/18 00:34:50;;;;;;;;;;;;;;;;;;5035673;28;19990;-22
2023/04/18 00:37:16;;;;;;;;;;;;;;;;;;5035609;28;19963;-22
2023/04/18 00:39:42;;;;;;;;;;;;;;;;;;5035594;28;19913;-22
2023/04/18 00:42:08;;;;;;;;;;;;;;;;;;5035466;28;19970;-22
2023/04/18 00:44:34;;;;;;;;;;;;;;;;;;5034497;28;19916;-21
2023/04/18 00:47:00;;;;;;;;;;;;;;;;;;5035355;28;19909;-22
2023/04/18 00:49:26;;;;;;;;;;;;;;;;;;5035323;28;19909;-22
2023/04/18 00:51:52;;;;;;;;;;;;;;;;;;5034231;28;19913;-22
2023/04/18 00:54:18;;;;;;;;;;;;;;;;;;5035566;28;19909;-21
2023/04/18 00:56:44;;;;;;;;;;;;;;;;;;5035193;28;20008;-22
2023/04/18 00:59:10;;;;;;;;;;;;;;;;;;5035465;28;19909;-21
2023/04/18 01:01:38;;;;;;;;;;;;;;;;;;5034245;28;19918;-22
2023/04/18 01:04:04;;;;;;;;;;;;;;;;;;5034913;28;19928;-22
2023/04/18 01:06:30;;;;;;;;;;;;;;;;;;5034071;28;20248;-23
2023/04/18 01:08:56;;;;;;;;;;;;;;;;;;5035302;28;19948;-22
2023/04/18 01:11:22;;;;;;;;;;;;;;;;;;5033935;28;20265;-22
2023/04/18 01:13:48;;;;;;;;;;;;;;;;;;5033949;28;19909;-21
2023/04/18 01:16:14;;;;;;;;;;;;;;;;;;5035130;28;19910;-23
2023/04/18 01:18:40;;;;;;;;;;;;;;;;;;5034930;28;19910;-23
2023/04/18 01:21:07;;;;;;;;;;;;;;;;;;5034861;28;19917;-21
2023/04/18 01:23:33;;;;;;;;;;;;;;;;;;5033823;28;19932;-22
2023/04/18 01:25:59;;;;;;;;;;;;;;;;;;5033721;28;20237;-24
2023/04/18 01:28:26;;;;;;;;;;;;;;;;;;5034736;28;19948;-21
2023/04/18 01:30:53;;;;;;;;;;;;;;;;;;5034713;28;19913;-21
2023/04/18 01:33:19;;;;;;;;;;;;;;;;;;5033588;28;19966;-23
2023/04/18 01:35:45;;;;;;;;;;;;;;;;;;5034703;28;19920;-22
2023/04/18 01:38:11;;;;;;;;;;;;;;;;;;5033621;28;19909;-20
2023/04/18 01:40:37;;;;;;;;;;;;;;;;;;5034642;28;20239;-22
2023/04/18 01:43:03;;;;;;;;;;;;;;;;;;5034523;28;19909;-22
2023/04/18 01:45:29;;;;;;;;;;;;;;;;;;5034496;28;19909;-22
2023/04/18 01:47:55;;;;;;;;;;;;;;;;;;5034532;28;19913;-21
2023/04/18 01:50:21;;;;;;;;;;;;;;;;;;5033476;28;19940;-22
2023/04/18 01:52:47;;;;;;;;;;;;;;;;;;5034505;28;19909;-21
2023/04/18 01:55:13;;;;;;;;;;;;;;;;;;5034748;28;19909;-22
2023/04/18 01:57:38;;;;;;;;;;;;;;;;;;5034689;28;19910;-22
2023/04/18 02:00:05;;;;;;;;;;;;;;;;;;5034479;28;19916;-21
2023/04/18 02:02:31;;;;;;;;;;;;;;;;;;5033987;28;20020;-22
2023/04/18 02:04:57;;;;;;;;;;;;;;;;;;5034749;28;19999;-23
2023/04/18 02:07:23;;;;;;;;;;;;;;;;;;5033419;28;20356;-23
2023/04/18 02:09:49;;;;;;;;;;;;;;;;;;5034334;28;19909;-23
2023/04/18 02:12:15;;;;;;;;;;;;;;;;;;5034804;28;20008;-21
2023/04/18 02:14:41;;;;;;;;;;;;;;;;;;5038280;28;19971;-21
2023/04/18 02:17:07;;;;;;;;;;;;;;;;;;5038403;28;19909;-22
2023/04/18 02:19:33;;;;;;;;;;;;;;;;;;5038158;28;19909;-23
2023/04/18 02:21:59;;;;;;;;;;;;;;;;;;5038241;28;19916;-22
2023/04/18 02:24:25;;;;;;;;;;;;;;;;;;5038127;28;19913;-22
2023/04/18 02:26:51;;;;;;;;;;;;;;;;;;5038339;28;19913;-21
2023/04/18 02:29:17;;;;;;;;;;;;;;;;;;5038466;28;20324;-21
2023/04/18 02:31:43;;;;;;;;;;;;;;;;;;5037968;28;20369;-22
2023/04/18 02:34:09;;;;;;;;;;;;;;;;;;5038176;28;19971;-22
2023/04/18 02:36:35;;;;;;;;;;;;;;;;;;5038195;28;19920;-22
2023/04/18 02:39:01;;;;;;;;;;;;;;;;;;5037828;28;19909;-22
2023/04/18 02:41:27;;;;;;;;;;;;;;;;;;5038040;28;19905;-22
2023/04/18 02:43:53;;;;;;;;;;;;;;;;;;5037605;28;19920;-21
2023/04/18 02:46:19;;;;;;;;;;;;;;;;;;5037905;28;20397;-21
2023/04/18 02:48:45;;;;;;;;;;;;;;;;;;5037659;28;20044;-21
2023/04/18 02:51:11;;;;;;;;;;;;;;;;;;5037823;28;20019;-21
2023/04/18 02:53:37;;;;;;;;;;;;;;;;;;5036498;28;20427;-23
2023/04/18 02:56:03;;;;;;;;;;;;;;;;;;5037460;28;19959;-22
2023/04/18 02:58:29;;;;;;;;;;;;;;;;;;5037480;28;20031;-21
2023/04/18 03:00:55;;;;;;;;;;;;;;;;;;5037617;28;19909;-24
2023/04/18 03:03:21;;;;;;;;;;;;;;;;;;5037075;28;19921;-21
2023/04/18 03:05:47;;;;;;;;;;;;;;;;;;5036342;28;19909;-21
2023/04/18 03:08:13;;;;;;;;;;;;;;;;;;5037561;28;19909;-21
2023/04/18 03:10:39;;;;;;;;;;;;;;;;;;5037214;28;20114;-23
2023/04/18 03:13:05;;;;;;;;;;;;;;;;;;5037104;28;19959;-22
2023/04/18 03:15:31;;;;;;;;;;;;;;;;;;5037424;28;19910;-22
2023/04/18 03:17:57;;;;;;;;;;;;;;;;;;5037106;28;20240;-22
2023/04/18 03:20:22;;;;;;;;;;;;;;;;;;5037086;28;19927;-22
2023/04/18 03:22:48;;;;;;;;;;;;;;;;;;5036633;28;19910;-21
2023/04/18 03:25:14;;;;;;;;;;;;;;;;;;5035409;28;20003;-21
2023/04/18 03:27:42;;;;;;;;;;;;;;;;;;5037171;28;20340;-22
2023/04/18 03:30:08;;;;;;;;;;;;;;;;;;5037101;28;19909;-22
2023/04/18 03:32:34;;;;;;;;;;;;;;;;;;5036783;28;19909;-22
2023/04/18 03:34:59;;;;;;;;;;;;;;;;;;5036672;28;19924;-22
2023/04/18 03:37:25;;;;;;;;;;;;;;;;;;5036905;28;19913;-22
2023/04/18 03:39:51;;;;;;;;;;;;;;;;;;5036556;28;19921;-22
2023/04/18 03:42:17;;;;;;;;;;;;;;;;;;5036419;28;20233;-21
2023/04/18 03:44:43;;;;;;;;;;;;;;;;;;5036725;28;20216;-22
2023/04/18 03:47:09;;;;;;;;;;;;;;;;;;5036678;28;20316;-22
2023/04/18 03:49:35;;;;;;;;;;;;;;;;;;5036649;28;19913;-23
2023/04/18 03:52:01;;;;;;;;;;;;;;;;;;5036239;28;19919;-24
2023/04/18 03:54:27;;;;;;;;;;;;;;;;;;5036286;28;19940;-22
2023/04/18 03:56:53;;;;;;;;;;;;;;;;;;5036355;28;19905;-21
2023/04/18 03:59:19;;;;;;;;;;;;;;;;;;5036098;28;20225;-22
2023/04/18 04:01:46;;;;;;;;;;;;;;;;;;5036277;28;19940;-20
2023/04/18 04:04:14;;;;;;;;;;;;;;;;;;5035861;28;20340;-21
2023/04/18 04:06:40;;;;;;;;;;;;;;;;;;5036189;28;19905;-22
2023/04/18 04:09:06;;;;;;;;;;;;;;;;;;5035667;28;19923;-21
2023/04/18 04:11:32;;;;;;;;;;;;;;;;;;5035501;28;20008;-22
2023/04/18 04:13:57;;;;;;;;;;;;;;;;;;5035675;28;19916;-22
2023/04/18 04:16:23;;;;;;;;;;;;;;;;;;5035987;28;19909;-22
2023/04/18 04:18:49;;;;;;;;;;;;;;;;;;5035601;28;19952;-23
2023/04/18 04:21:15;;;;;;;;;;;;;;;;;;5035490;28;19924;-21
2023/04/18 04:23:41;;;;;;;;;;;;;;;;;;5035701;28;19909;-21
2023/04/18 04:26:08;;;;;;;;;;;;;;;;;;5034426;28;19920;-21
2023/04/18 04:28:34;;;;;;;;;;;;;;;;;;5035809;28;20371;-22
2023/04/18 04:31:00;;;;;;;;;;;;;;;;;;5035551;28;19921;-22
2023/04/18 04:33:32;;;;;;;;;;;;;;;;;;5035581;28;19909;-22
2023/04/18 04:35:58;;;;;;;;;;;;;;;;;;5034315;28;19996;-22
2023/04/18 04:38:24;;;;;;;;;;;;;;;;;;5035393;28;20340;-22
2023/04/18 04:40:50;;;;;;;;;;;;;;;;;;5035711;28;19999;-23
2023/04/18 04:43:16;;;;;;;;;;;;;;;;;;5035277;28;19921;-21
2023/04/18 04:45:42;;;;;;;;;;;;;;;;;;5035525;28;19968;-22
2023/04/18 04:48:08;;;;;;;;;;;;;;;;;;5035263;28;19919;-21
2023/04/18 04:50:34;;;;;;;;;;;;;;;;;;5035302;28;19917;-22
2023/04/18 04:53:00;;;;;;;;;;;;;;;;;;5035254;28;19932;-23
2023/04/18 04:55:26;;;;;;;;;;;;;;;;;;5035029;28;20340;-22
2023/04/18 04:57:52;;;;;;;;;;;;;;;;;;5034896;28;20434;-22
2023/04/18 05:00:19;;;;;;;;;;;;;;;;;;5033763;28;19921;-22
2023/04/18 05:02:46;;;;;;;;;;;;;;;;;;5034761;28;19956;-21
2023/04/18 05:05:12;;;;;;;;;;;;;;;;;;5033854;28;20260;-22
2023/04/18 05:07:38;;;;;;;;;;;;;;;;;;5035101;28;19909;-21
2023/04/18 05:10:04;;;;;;;;;;;;;;;;;;5034714;28;19916;-24
2023/04/18 05:12:30;;;;;;;;;;;;;;;;;;5034601;28;19996;-22
2023/04/18 05:14:56;;;;;;;;;;;;;;;;;;5035022;28;20119;-23
2023/04/18 05:17:22;;;;;;;;;;;;;;;;;;5034561;28;19952;-22
2023/04/18 05:19:48;;;;;;;;;;;;;;;;;;5034789;28;19909;-21
2023/04/18 05:22:14;;;;;;;;;;;;;;;;;;5034530;28;20324;-21
2023/04/18 05:24:40;;;;;;;;;;;;;;;;;;5034642;28;20255;-23
2023/04/18 05:27:06;;;;;;;;;;;;;;;;;;5034721;28;19924;-24
2023/04/18 05:29:32;;;;;;;;;;;;;;;;;;5034562;28;19974;-23
2023/04/18 05:31:57;;;;;;;;;;;;;;;;;;5034485;28;19913;-21
2023/04/18 05:34:23;;;;;;;;;;;;;;;;;;5033445;28;19995;-22
2023/04/18 05:36:49;;;;;;;;;;;;;;;;;;5034293;28;20363;-21
2023/04/18 05:39:15;;;;;;;;;;;;;;;;;;5034113;28;19987;-21
2023/04/18 05:41:42;;;;;;;;;;;;;;;;;;5034196;28;19959;-22
2023/04/18 05:44:08;;;;;;;;;;;;;;;;;;5033841;28;19910;-23
2023/04/18 05:46:33;;;;;;;;;;;;;;;;;;5033652;28;19905;-22
2023/04/18 05:48:59;;;;;;;;;;;;;;;;;;5034145;28;19949;-24
2023/04/18 05:51:27;;;;;;;;;;;;;;;;;;5034263;28;19917;-22
2023/04/18 05:53:53;;;;;;;;;;;;;;;;;;5034124;28;19920;-23
2023/04/18 05:56:19;;;;;;;;;;;;;;;;;;5033049;28;19909;-22
2023/04/18 05:58:46;;;;;;;;;;;;;;;;;;5034041;28;19975;-20
2023/04/18 06:01:13;;;;;;;;;;;;;;;;;;5034324;28;19909;-22
2023/04/18 06:03:40;;;;;;;;;;;;;;;;;;5033767;28;20313;-21
2023/04/18 06:06:06;;;;;;;;;;;;;;;;;;5034129;28;19920;-22
2023/04/18 06:08:32;;;;;;;;;;;;;;;;;;5033807;28;20329;-21
2023/04/18 06:10:58;;;;;;;;;;;;;;;;;;5032727;28;19978;-22
2023/04/18 06:13:23;;;;;;;;;;;;;;;;;;5033072;28;19920;-23
2023/04/18 06:15:49;;;;;;;;;;;;;;;;;;5033057;28;20376;-23
2023/04/18 06:18:15;;;;;;;;;;;;;;;;;;5032990;28;19960;-23
2023/04/18 06:20:42;;;;;;;;;;;;;;;;;;5033074;28;19928;-21
2023/04/18 06:23:08;;;;;;;;;;;;;;;;;;5033084;28;19909;-21
2023/04/18 06:25:34;;;;;;;;;;;;;;;;;;5032989;28;19932;-21
2023/04/18 06:28:00;;;;;;;;;;;;;;;;;;5033190;28;19913;-23
2023/04/18 06:30:26;;;;;;;;;;;;;;;;;;5032934;28;19913;-22
2023/04/18 06:32:52;;;;;;;;;;;;;;;;;;5033000;28;20336;-22
2023/04/18 06:35:18;;;;;;;;;;;;;;;;;;5033153;28;19909;-22
2023/04/18 06:37:44;;;;;;;;;;;;;;;;;;5033310;28;20352;-22
2023/04/18 06:40:10;;;;;;;;;;;;;;;;;;5032649;28;19909;-22
2023/04/18 06:42:36;;;;;;;;;;;;;;;;;;5033940;28;20288;-21
2023/04/18 06:45:02;;;;;;;;;;;;;;;;;;5032611;28;19910;-21
2023/04/18 06:47:28;;;;;;;;;;;;;;;;;;5033648;28;20343;-22
2023/04/18 06:49:54;;;;;;;;;;;;;;;;;;5033760;28;19992;-22
2023/04/18 06:52:20;;;;;;;;;;;;;;;;;;5033413;28;19960;-21
2023/04/18 06:54:46;;;;;;;;;;;;;;;;;;5033856;28;20328;-22
2023/04/18 06:57:12;;;;;;;;;;;;;;;;;;5034238;28;19909;-21
2023/04/18 06:59:40;;;;;;;;;;;;;;;;;;5035567;28;19909;-22
2023/04/18 07:02:06;;;;;;;;;;;;;;;;;;5036834;28;19909;-22
2023/04/18 07:04:32;;;;;;;;;;;;;;;;;;5036402;28;19921;-22
2023/04/18 07:06:58;;;;;;;;;;;;;;;;;;5036684;28;19968;-22
2023/04/18 07:09:24;;;;;;;;;;;;;;;;;;5036649;28;19913;-23
2023/04/18 07:11:51;;;;;;;;;;;;;;;;;;5036658;28;20336;-22
2023/04/18 07:14:18;;;;;;;;;;;;;;;;;;5036697;28;19909;-22
2023/04/18 07:16:44;;;;;;;;;;;;;;;;;;5036422;28;19919;-22
2023/04/18 07:19:10;;;;;;;;;;;;;;;;;;5036700;28;19913;-23
2023/04/18 07:21:39;;;;;;;;;;;;;;;;;;5036899;28;19991;-21
2023/04/18 07:24:04;;;;;;;;;;;;;;;;;;5036414;28;20324;-31
2023/04/18 07:26:30;;;;;;;;;;;;;;;;;;5036798;28;19912;-23
2023/04/18 07:28:56;;;;;;;;;;;;;;;;;;5036376;28;19909;-21
2023/04/18 07:31:24;;;;;;;;;;;;;;;;;;5036262;28;19996;-22
2023/04/18 07:33:50;;;;;;;;;;;;;;;;;;5035962;28;19909;-21
2023/04/18 07:36:16;;;;;;;;;;;;;;;;;;5034867;28;19936;-22
2023/04/18 07:38:43;;;;;;;;;;;;;;;;;;5035038;28;19909;-24
2023/04/18 07:41:09;;;;;;;;;;;;;;;;;;5036198;28;19913;-22
2023/04/18 07:43:35;;;;;;;;;;;;;;;;;;5036100;28;19913;-22
2023/04/18 07:46:01;;;;;;;;;;;;;;;;;;5035857;28;20260;-23
2023/04/18 07:48:27;;;;;;;;;;;;;;;;;;5036000;28;19909;-21
2023/04/18 07:50:53;;;;;;;;;;;;;;;;;;5036263;28;20012;-22
2023/04/18 07:53:19;;;;;;;;;;;;;;;;;;5036519;28;19913;-22
2023/04/18 07:55:45;;;;;;;;;;;;;;;;;;5036465;28;19924;-21
2023/04/18 07:58:11;;;;;;;;;;;;;;;;;;5036205;28;19913;-22
2023/04/18 08:00:38;;;;;;;;;;;;;;;;;;5036074;28;19909;-22
2023/04/18 08:03:04;;;;;;;;;;;;;;;;;;5035799;28;19925;-30
2023/04/18 08:05:30;;;;;;;;;;;;;;;;;;5036018;28;20008;-22
2023/04/18 08:07:56;;;;;;;;;;;;;;;;;;5035894;28;19909;-21
2023/04/18 08:10:22;;;;;;;;;;;;;;;;;;5035676;28;19909;-21
2023/04/18 08:12:48;;;;;;;;;;;;;;;;;;5034692;28;19948;-22
2023/04/18 08:15:14;;;;;;;;;;;;;;;;;;5035998;28;20324;-25
2023/04/18 08:17:42;;;;;;;;;;;;;;;;;;5035647;28;20004;-23
2023/04/18 08:20:08;;;;;;;;;;;;;;;;;;5035854;28;19917;-22
2023/04/18 08:22:34;;;;;;;;;;;;;;;;;;5035438;28;20228;-22
2023/04/18 08:25:00;;;;;;;;;;;;;;;;;;5034207;28;19920;-22
2023/04/18 08:27:26;;;;;;;;;;;;;;;;;;5035129;28;19909;-23
2023/04/18 08:29:52;;;;;;;;;;;;;;;;;;5033349;28;19909;-22
2023/04/18 08:32:18;;;;;;;;;;;;;;;;;;5034302;28;20012;-21
2023/04/18 08:34:45;;;;;;;;;;;;;;;;;;5034387;28;19909;-21
2023/04/18 08:37:11;;;;;;;;;;;;;;;;;;5034276;28;19909;-21
2023/04/18 08:39:37;;;;;;;;;;;;;;;;;;5034446;28;20012;-23
2023/04/18 08:42:03;;;;;;;;;;;;;;;;;;5034223;28;19917;-22
2023/04/18 08:44:29;;;;;;;;;;;;;;;;;;5034034;28;19909;-22
2023/04/18 08:46:56;;;;;;;;;;;;;;;;;;5033772;28;19920;-24
2023/04/18 08:49:23;;;;;;;;;;;;;;;;;;5033745;28;19967;-22
2023/04/18 08:51:49;;;;;;;;;;;;;;;;;;5033712;28;19913;-22
2023/04/18 08:54:15;;;;;;;;;;;;;;;;;;5033793;28;20320;-22
2023/04/18 08:56:41;;;;;;;;;;;;;;;;;;5033703;28;19916;-22
2023/04/18 08:59:08;;;;;;;;;;;;;;;;;;5033527;28;20047;-22
2023/04/18 09:01:34;;;;;;;;;;;;;;;;;;5032700;28;19905;-22
2023/04/18 09:04:00;;;;;;;;;;;;;;;;;;5033499;28;19921;-23
2023/04/18 09:06:27;;;;;;;;;;;;;;;;;;5033572;28;19996;-22
2023/04/18 09:08:53;;;;;;;;;;;;;;;;;;5033456;28;19909;-22
2023/04/18 09:11:19;;;;;;;;;;;;;;;;;;5033207;28;19943;-22
2023/04/18 09:13:46;;;;;;;;;;;;;;;;;;5033051;28;19936;-23
2023/04/18 09:16:13;;;;;;;;;;;;;;;;;;5033505;28;19931;-22
2023/04/18 09:18:41;;;;;;;;;;;;;;;;;;5032002;28;20419;-26
2023/04/18 09:21:07;;;;;;;;;;;;;;;;;;5031739;28;20355;-23
2023/04/18 09:23:33;;;;;;;;;;;;;;;;;;5033618;28;19909;-21
2023/04/18 09:25:59;;;;;;;;;;;;;;;;;;5034211;28;20366;-21
2023/04/18 09:28:28;;;;;;;;;;;;;;;;;;5034421;28;19909;-23
2023/04/18 09:30:54;;;;;;;;;;;;;;;;;;5033119;28;20252;-24
2023/04/18 09:33:21;;;;;;;;;;;;;;;;;;5034068;28;19920;-22
2023/04/18 09:35:47;;;;;;;;;;;;;;;;;;5034517;28;19909;-22
2023/04/18 09:38:13;;;;;;;;;;;;;;;;;;5034297;28;19916;-23
2023/04/18 09:40:39;;;;;;;;;;;;;;;;;;5034329;28;19915;-22
2023/04/18 09:43:05;;;;;;;;;;;;;;;;;;5033107;28;20248;-22
2023/04/18 09:45:31;;;;;;;;;;;;;;;;;;5034240;28;19917;-21
2023/04/18 09:47:57;;;;;;;;;;;;;;;;;;5034662;28;20241;-21
2023/04/18 09:50:23;;;;;;;;;;;;;;;;;;5033074;28;19959;-22
2023/04/18 09:52:49;;;;;;;;;;;;;;;;;;5034161;28;19921;-24
2023/04/18 09:55:15;;;;;;;;;;;;;;;;;;5034018;28;19983;-22
2023/04/18 09:57:41;;;;;;;;;;;;;;;;;;5033739;28;20335;-22
2023/04/18 10:00:13;;;;;;;;;;;;;;;;;;5033832;28;19956;-22
2023/04/18 10:02:40;;;;;;;;;;;;;;;;;;5033786;28;19909;-21
2023/04/18 10:05:07;;;;;;;;;;;;;;;;;;5033878;28;19988;-21
2023/04/18 10:07:33;;;;;;;;;;;;;;;;;;5033927;28;19920;-21
2023/04/18 10:09:59;;;;;;;;;;;;;;;;;;5034214;28;19909;-21
2023/04/18 10:12:25;;;;;;;;;;;;;;;;;;5032694;28;19932;-22
2023/04/18 10:14:51;;;;;;;;;;;;;;;;;;5033904;28;19909;-23
2023/04/18 10:17:16;;;;;;;;;;;;;;;;;;5034001;28;19967;-22
2023/04/18 10:19:45;;;;;;;;;;;;;;;;;;5033712;28;19967;-23
2023/04/18 10:22:11;;;;;;;;;;;;;;;;;;5033639;28;19909;-22
2023/04/18 10:24:37;;;;;;;;;;;;;;;;;;5033517;28;19910;-22
2023/04/18 10:27:03;;;;;;;;;;;;;;;;;;5034208;28;19909;-21
2023/04/18 10:29:29;;;;;;;;;;;;;;;;;;5033631;28;20347;-22
2023/04/18 10:31:55;;;;;;;;;;;;;;;;;;5033405;28;19960;-21
2023/04/18 10:34:21;;;;;;;;;;;;;;;;;;5037175;28;19909;-21
2023/04/18 10:36:47;;;;;;;;;;;;;;;;;;5037735;28;19912;-23
2023/04/18 10:39:12;;;;;;;;;;;;;;;;;;5037317;28;19909;-22
2023/04/18 10:41:38;;;;;;;;;;;;;;;;;;5037783;28;19906;-22
2023/04/18 10:44:04;;;;;;;;;;;;;;;;;;5037376;28;19909;-22
2023/04/18 10:46:30;;;;;;;;;;;;;;;;;;5037439;28;20340;-21
2023/04/18 10:48:56;;;;;;;;;;;;;;;;;;5037300;28;19909;-22
2023/04/18 10:51:22;;;;;;;;;;;;;;;;;;5037334;28;19913;-24
2023/04/18 10:53:49;;;;;;;;;;;;;;;;;;5037387;28;19915;-22
2023/04/18 10:56:15;;;;;;;;;;;;;;;;;;5036805;28;19955;-23
2023/04/18 10:58:41;;;;;;;;;;;;;;;;;;5036390;28;19909;-23
2023/04/18 11:01:07;;;;;;;;;;;;;;;;;;5036143;28;19913;-22
2023/04/18 11:03:33;;;;;;;;;;;;;;;;;;5035943;28;20017;-21
2023/04/18 11:05:59;;;;;;;;;;;;;;;;;;5036199;28;19909;-22
2023/04/18 11:08:25;;;;;;;;;;;;;;;;;;5035009;28;19924;-22
2023/04/18 11:10:51;;;;;;;;;;;;;;;;;;5035909;28;20232;-24
2023/04/18 11:13:17;;;;;;;;;;;;;;;;;;5036146;28;19909;-22
2023/04/18 11:15:43;;;;;;;;;;;;;;;;;;5035869;28;19984;-21
2023/04/18 11:18:09;;;;;;;;;;;;;;;;;;5035812;28;19909;-21
2023/04/18 11:20:35;;;;;;;;;;;;;;;;;;5035828;28;19917;-25
2023/04/18 11:23:01;;;;;;;;;;;;;;;;;;5036407;28;19956;-24
2023/04/18 11:25:27;;;;;;;;;;;;;;;;;;5036584;28;20004;-22
2023/04/18 11:27:56;;;;;;;;;;;;;;;;;;5036727;28;19913;-22
2023/04/18 11:30:22;;;;;;;;;;;;;;;;;;5036416;28;19916;-23
2023/04/18 11:32:48;;;;;;;;;;;;;;;;;;5036509;28;20217;-23
2023/04/18 11:35:14;;;;;;;;;;;;;;;;;;5036216;28;19909;-22
2023/04/18 11:37:40;;;;;;;;;;;;;;;;;;5036381;28;19916;-22
2023/04/18 11:40:06;;;;;;;;;;;;;;;;;;5036178;28;20332;-21
2023/04/18 11:42:32;;;;;;;;;;;;;;;;;;5035918;28;19909;-20
2023/04/18 11:44:58;;;;;;;;;;;;;;;;;;5035933;28;19944;-22
2023/04/18 11:47:24;;;;;;;;;;;;;;;;;;5035953;28;19909;-22
2023/04/18 11:49:50;;;;;;;;;;;;;;;;;;5036013;28;19992;-22
2023/04/18 11:52:16;;;;;;;;;;;;;;;;;;5035890;28;19917;-22
2023/04/18 11:54:42;;;;;;;;;;;;;;;;;;5036186;28;19943;-21
2023/04/18 11:57:08;;;;;;;;;;;;;;;;;;5036177;28;19920;-22
2023/04/18 11:59:35;;;;;;;;;;;;;;;;;;5036049;28;19913;-22
2023/04/18 12:02:01;;;;;;;;;;;;;;;;;;5035544;28;19956;-21
2023/04/18 12:04:27;;;;;;;;;;;;;;;;;;5035451;28;19922;-22
2023/04/18 12:06:53;;;;;;;;;;;;;;;;;;5035598;28;19996;-22
2023/04/18 12:09:19;;;;;;;;;;;;;;;;;;5035841;28;19909;-21
2023/04/18 12:11:45;;;;;;;;;;;;;;;;;;5035436;28;19967;-22
2023/04/18 12:14:10;;;;;;;;;;;;;;;;;;5035831;28;19992;-20
2023/04/18 12:16:36;;;;;;;;;;;;;;;;;;5035857;28;19906;-22
2023/04/18 12:19:02;;;;;;;;;;;;;;;;;;5035838;28;19909;-22
2023/04/18 12:21:29;;;;;;;;;;;;;;;;;;5035553;28;19905;-23
2023/04/18 12:23:56;;;;;;;;;;;;;;;;;;5035654;28;19995;-22
2023/04/18 12:26:22;;;;;;;;;;;;;;;;;;5035087;28;20373;-22
2023/04/18 12:28:48;;;;;;;;;;;;;;;;;;5034869;28;19945;-22
2023/04/18 12:31:14;;;;;;;;;;;;;;;;;;5034768;28;19953;-22
2023/04/18 12:33:40;;;;;;;;;;;;;;;;;;5035154;28;19917;-22
2023/04/18 12:36:07;;;;;;;;;;;;;;;;;;5034248;28;19913;-21
2023/04/18 12:38:33;;;;;;;;;;;;;;;;;;5035248;28;19975;-20
2023/04/18 12:40:59;;;;;;;;;;;;;;;;;;5035263;28;20252;-21
2023/04/18 12:43:25;;;;;;;;;;;;;;;;;;5035149;28;19909;-22
2023/04/18 12:45:51;;;;;;;;;;;;;;;;;;5034169;28;19940;-22
2023/04/18 12:48:17;;;;;;;;;;;;;;;;;;5035122;28;19913;-23
2023/04/18 12:50:43;;;;;;;;;;;;;;;;;;5034721;28;19913;-22
2023/04/18 12:53:09;;;;;;;;;;;;;;;;;;5034747;28;19991;-21
2023/04/18 12:55:35;;;;;;;;;;;;;;;;;;5034854;28;19913;-22
2023/04/18 12:58:01;;;;;;;;;;;;;;;;;;5034893;28;19910;-21
2023/04/18 13:00:27;;;;;;;;;;;;;;;;;;5034800;28;19959;-22
2023/04/18 13:02:53;;;;;;;;;;;;;;;;;;5034546;28;19962;-23
2023/04/18 13:05:19;;;;;;;;;;;;;;;;;;5035178;28;19912;-23
2023/04/18 13:07:47;;;;;;;;;;;;;;;;;;5035170;28;19909;-23
2023/04/18 13:10:13;;;;;;;;;;;;;;;;;;5034798;28;19909;-22
2023/04/18 13:12:39;;;;;;;;;;;;;;;;;;5034766;28;19913;-23
2023/04/18 13:15:05;;;;;;;;;;;;;;;;;;5034785;28;19963;-21
2023/04/18 13:17:32;;;;;;;;;;;;;;;;;;5034772;28;19910;-22
2023/04/18 13:19:58;;;;;;;;;;;;;;;;;;5035198;28;19913;-22
2023/04/18 13:22:24;;;;;;;;;;;;;;;;;;5034594;28;19958;-21
2023/04/18 13:24:50;;;;;;;;;;;;;;;;;;5034539;28;20303;-21
2023/04/18 13:27:16;;;;;;;;;;;;;;;;;;5034566;28;19970;-21
2023/04/18 13:29:44;;;;;;;;;;;;;;;;;;5034800;28;19929;-22
2023/04/18 13:32:10;;;;;;;;;;;;;;;;;;5034233;28;20046;-22
2023/04/18 13:34:36;;;;;;;;;;;;;;;;;;5034388;28;19944;-23
2023/04/18 13:37:02;;;;;;;;;;;;;;;;;;5034683;28;19909;-23
2023/04/18 13:39:28;;;;;;;;;;;;;;;;;;5034331;28;20001;-22
2023/04/18 13:41:54;;;;;;;;;;;;;;;;;;5034404;28;20345;-21
2023/04/18 13:44:20;;;;;;;;;;;;;;;;;;5034048;28;20051;-22
2023/04/18 13:46:46;;;;;;;;;;;;;;;;;;5034165;28;19960;-21
2023/04/18 13:49:12;;;;;;;;;;;;;;;;;;5034134;28;20296;-23
2023/04/18 13:51:38;;;;;;;;;;;;;;;;;;5034058;28;20307;-23
2023/04/18 13:54:04;;;;;;;;;;;;;;;;;;5033160;28;19909;-22
2023/04/18 13:56:30;;;;;;;;;;;;;;;;;;5034625;28;19920;-22
2023/04/18 13:58:56;;;;;;;;;;;;;;;;;;5034060;28;19981;-22
2023/04/18 14:01:22;;;;;;;;;;;;;;;;;;5034067;28;19936;-22
2023/04/18 14:03:48;;;;;;;;;;;;;;;;;;5033647;28;19995;-21
2023/04/18 14:06:14;;;;;;;;;;;;;;;;;;5034008;28;20300;-23
2023/04/18 14:08:40;;;;;;;;;;;;;;;;;;5036386;28;19967;-22
2023/04/18 14:11:06;;;;;;;;;;;;;;;;;;5037872;28;19917;-22
2023/04/18 14:13:32;;;;;;;;;;;;;;;;;;5038018;28;19971;-22
2023/04/18 14:15:58;;;;;;;;;;;;;;;;;;5038215;28;19920;-22
2023/04/18 14:18:25;;;;;;;;;;;;;;;;;;5038560;28;20374;-20
2023/04/18 14:20:50;;;;;;;;;;;;;;;;;;5038254;28;19910;-23
2023/04/18 14:23:17;;;;;;;;;;;;;;;;;;5037828;28;20071;-22
2023/04/18 14:25:43;;;;;;;;;;;;;;;;;;5037825;28;19992;-21
2023/04/18 14:28:09;;;;;;;;;;;;;;;;;;5037826;28;19940;-23
2023/04/18 14:30:35;;;;;;;;;;;;;;;;;;5037878;28;19923;-22
2023/04/18 14:33:02;;;;;;;;;;;;;;;;;;5037522;28;19909;-23
2023/04/18 14:35:28;;;;;;;;;;;;;;;;;;5037678;28;19921;-22
2023/04/18 14:37:54;;;;;;;;;;;;;;;;;;5037660;28;19916;-21
2023/04/18 14:40:20;;;;;;;;;;;;;;;;;;5037751;28;19909;-22
2023/04/18 14:42:46;;;;;;;;;;;;;;;;;;5037878;28;19967;-23
2023/04/18 14:45:12;;;;;;;;;;;;;;;;;;5036550;28;19909;-31
2023/04/18 14:47:38;;;;;;;;;;;;;;;;;;5037388;28;19939;-32
2023/04/18 14:50:04;;;;;;;;;;;;;;;;;;5037738;28;19909;-29
2023/04/18 14:52:30;;;;;;;;;;;;;;;;;;5037213;28;20259;-29
2023/04/18 14:54:56;;;;;;;;;;;;;;;;;;5037579;28;20055;-28
2023/04/18 14:57:22;;;;;;;;;;;;;;;;;;5037385;28;19916;-25
2023/04/18 14:59:48;;;;;;;;;;;;;;;;;;5036959;28;19995;-33
2023/04/18 15:02:14;;;;;;;;;;;;;;;;;;5037018;28;19913;-27
2023/04/18 15:04:40;;;;;;;;;;;;;;;;;;5036554;28;20016;-25
2023/04/18 15:07:06;;;;;;;;;;;;;;;;;;5036879;28;19940;-26
2023/04/18 15:09:32;;;;;;;;;;;;;;;;;;5036695;28;19939;-30
2023/04/18 15:12:00;;;;;;;;;;;;;;;;;;5036097;28;21211;-29
2023/04/18 15:14:26;;;;;;;;;;;;;;;;;;5036851;28;19938;-27
2023/04/18 15:16:52;;;;;;;;;;;;;;;;;;5036524;28;19948;-26
2023/04/18 15:19:18;;;;;;;;;;;;;;;;;;5035195;28;19975;-28
2023/04/18 15:21:44;;;;;;;;;;;;;;;;;;5036437;28;19923;-28
2023/04/18 15:24:10;;;;;;;;;;;;;;;;;;5036682;28;20005;-31
2023/04/18 15:26:36;;;;;;;;;;;;;;;;;;5036371;28;19921;-26
2023/04/18 15:29:02;;;;;;;;;;;;;;;;;;5036342;28;20115;-32
2023/04/18 15:31:29;;;;;;;;;;;;;;;;;;5036227;28;19924;-23
2023/04/18 15:33:55;;;;;;;;;;;;;;;;;;5036107;28;19935;-26
2023/04/18 15:36:21;;;;;;;;;;;;;;;;;;5036351;28;20008;-28
2023/04/18 15:38:47;;;;;;;;;;;;;;;;;;5036938;28;19909;-26
2023/04/18 15:41:13;;;;;;;;;;;;;;;;;;5035487;28;19909;-26
2023/04/18 15:43:42;;;;;;;;;;;;;;;;;;5036277;28;19967;-27
2023/04/18 15:46:08;;;;;;;;;;;;;;;;;;5036399;28;19909;-25
2023/04/18 15:48:35;;;;;;;;;;;;;;;;;;5036428;28;19967;-30
2023/04/18 15:51:01;;;;;;;;;;;;;;;;;;5036549;28;19924;-29
2023/04/18 15:53:27;;;;;;;;;;;;;;;;;;5036677;28;20368;-29
2023/04/18 15:55:53;;;;;;;;;;;;;;;;;;5037071;28;20344;-24
2023/04/18 15:58:22;;;;;;;;;;;;;;;;;;5036556;28;19919;-29
2023/04/18 16:00:49;;;;;;;;;;;;;;;;;;5036522;28;19920;-26
2023/04/18 16:03:15;;;;;;;;;;;;;;;;;;5036078;28;19924;-27
2023/04/18 16:05:41;;;;;;;;;;;;;;;;;;5036196;28;20324;-26
2023/04/18 16:08:08;;;;;;;;;;;;;;;;;;5036163;28;19909;-26
2023/04/18 16:10:34;;;;;;;;;;;;;;;;;;5035675;28;20321;-28
2023/04/18 16:13:01;;;;;;;;;;;;;;;;;;5035944;28;20111;-29
2023/04/18 16:15:27;;;;;;;;;;;;;;;;;;5036250;28;19932;-28
2023/04/18 16:17:53;;;;;;;;;;;;;;;;;;5036303;28;19910;-23
2023/04/18 16:20:19;;;;;;;;;;;;;;;;;;5035942;28;20268;-27
2023/04/18 16:22:44;;;;;;;;;;;;;;;;;;5036014;28;20325;-30
2023/04/18 16:25:10;;;;;;;;;;;;;;;;;;5036093;28;19968;-27
2023/04/18 16:27:36;;;;;;;;;;;;;;;;;;5035871;28;20284;-27
2023/04/18 16:30:02;;;;;;;;;;;;;;;;;;5035917;28;20285;-29
2023/04/18 16:32:28;;;;;;;;;;;;;;;;;;5035283;28;19964;-31
2023/04/18 16:34:54;;;;;;;;;;;;;;;;;;5035775;28;19909;-26
2023/04/18 16:37:20;;;;;;;;;;;;;;;;;;5035652;28;19956;-30